Terminal Aerodrome Forecast
Issued by NWS Lake Charles, LA

Home | Current Version | Previous Version | Text Only | Print | Product List | Glossary On
Versions: 1 2 3 4 5 6 7 8 9 10 11 12 13 14 15
000
FTUS44 KLCH 171900 AAA
TAFAEX
TAF AMD
KAEX 171908Z 1719/1818 09007KT P6SM VCSH SCT035 BKN080
      TEMPO 1719/1722 3SM SHRA BKN025 OVC035
     FM180100 VRB03KT P6SM BKN050
      TEMPO 1810/1814 OVC025
     FM181400 36007KT P6SM OVC025=

USA.gov is the U.S. government's official web portal to all federal, state and local government web resources and services.